sensor_id;sensor_type;location;lat;lon;timestamp;pressure;altitude;pressure_sealevel;temperature;humidity
56600;BME280;51832;48.152;11.530;2023-08-31T00:00:50;94949.13;;;16.52;93.35
56600;BME280;51832;48.152;11.530;2023-08-31T00:05:53;94956.59;;;16.40;93.67
56600;BME280;51832;48.152;11.530;2023-08-31T00:10:58;94954.41;;;16.57;92.60
56600;BME280;51832;48.152;11.530;2023-08-31T00:15:59;94944.03;;;16.70;91.86
56600;BME280;51832;48.152;11.530;2023-08-31T00:20:59;94958.41;;;16.44;92.42
56600;BME280;51832;48.152;11.530;2023-08-31T00:25:59;94953.63;;;16.51;91.14
56600;BME280;51832;48.152;11.530;2023-08-31T00:31:01;94951.50;;;16.48;91.29
56600;BME280;51832;48.152;11.530;2023-08-31T00:36:04;94964.81;;;16.38;91.32
56600;BME280;51832;48.152;11.530;2023-08-31T00:41:05;94963.53;;;16.15;92.09
56600;BME280;51832;48.152;11.530;2023-08-31T00:46:06;94966.19;;;16.15;91.45
56600;BME280;51832;48.152;11.530;2023-08-31T00:51:07;94968.56;;;16.17;91.18
56600;BME280;51832;48.152;11.530;2023-08-31T00:56:08;94972.56;;;16.24;90.55
56600;BME280;51832;48.152;11.530;2023-08-31T01:12:07;94964.59;;;16.24;91.31
56600;BME280;51832;48.152;11.530;2023-08-31T01:17:12;94961.44;;;16.07;92.19
56600;BME280;51832;48.152;11.530;2023-08-31T01:22:38;94957.72;;;16.08;91.01
56600;BME280;51832;48.152;11.530;2023-08-31T01:27:40;94957.72;;;15.98;91.75
56600;BME280;51832;48.152;11.530;2023-08-31T01:32:45;94964.88;;;16.08;91.67
56600;BME280;51832;48.152;11.530;2023-08-31T01:42:50;94964.59;;;15.99;92.35
56600;BME280;51832;48.152;11.530;2023-08-31T01:47:50;94960.38;;;16.08;92.72
56600;BME280;51832;48.152;11.530;2023-08-31T01:52:51;94964.06;;;16.17;92.83
56600;BME280;51832;48.152;11.530;2023-08-31T01:57:53;94975.47;;;16.18;92.28
56600;BME280;51832;48.152;11.530;2023-08-31T02:02:54;94977.06;;;16.14;92.48
56600;BME280;51832;48.152;11.530;2023-08-31T02:07:54;94974.94;;;16.21;93.08
56600;BME280;51832;48.152;11.530;2023-08-31T02:12:55;94985.81;;;16.19;94.11
56600;BME280;51832;48.152;11.530;2023-08-31T02:17:55;95002.53;;;16.20;93.06
56600;BME280;51832;48.152;11.530;2023-08-31T02:22:56;95010.25;;;15.81;95.29
56600;BME280;51832;48.152;11.530;2023-08-31T02:27:56;95035.69;;;15.61;97.10
56600;BME280;51832;48.152;11.530;2023-08-31T02:32:57;95050.06;;;15.96;96.58
56600;BME280;51832;48.152;11.530;2023-08-31T02:37:57;95055.91;;;15.98;98.23
56600;BME280;51832;48.152;11.530;2023-08-31T02:42:58;95061.47;;;15.81;100.00
56600;BME280;51832;48.152;11.530;2023-08-31T02:47:58;95042.34;;;15.79;100.00
56600;BME280;51832;48.152;11.530;2023-08-31T02:52:59;95042.09;;;15.71;100.00
56600;BME280;51832;48.152;11.530;2023-08-31T02:57:59;95053.47;;;15.66;100.00
56600;BME280;51832;48.152;11.530;2023-08-31T03:03:00;95047.91;;;15.62;100.00
56600;BME280;51832;48.152;11.530;2023-08-31T03:08:00;95047.56;;;15.49;100.00
56600;BME280;51832;48.152;11.530;2023-08-31T03:13:01;95037.78;;;15.44;100.00
56600;BME280;51832;48.152;11.530;2023-08-31T03:18:01;95044.59;;;15.25;100.00
56600;BME280;51832;48.152;11.530;2023-08-31T03:23:02;95039.03;;;15.26;100.00
56600;BME280;51832;48.152;11.530;2023-08-31T03:28:03;95059.69;;;15.24;100.00
56600;BME280;51832;48.152;11.530;2023-08-31T03:33:04;95055.09;;;15.00;100.00
56600;BME280;51832;48.152;11.530;2023-08-31T03:38:04;95063.34;;;15.08;100.00
56600;BME280;51832;48.152;11.530;2023-08-31T03:43:05;95070.28;;;15.14;100.00
56600;BME280;51832;48.152;11.530;2023-08-31T03:48:05;95098.91;;;15.22;100.00
56600;BME280;51832;48.152;11.530;2023-08-31T03:53:06;95085.13;;;15.20;100.00
56600;BME280;51832;48.152;11.530;2023-08-31T03:58:06;95084.97;;;15.52;100.00
56600;BME280;51832;48.152;11.530;2023-08-31T04:03:06;95089.72;;;15.50;100.00
56600;BME280;51832;48.152;11.530;2023-08-31T04:08:07;95088.22;;;15.64;100.00
56600;BME280;51832;48.152;11.530;2023-08-31T04:13:07;95085.59;;;15.90;100.00
56600;BME280;51832;48.152;11.530;2023-08-31T04:18:08;95097.84;;;15.96;100.00
56600;BME280;51832;48.152;11.530;2023-08-31T04:23:08;95107.41;;;16.32;100.00
56600;BME280;51832;48.152;11.530;2023-08-31T04:28:09;95117.22;;;16.17;100.00
56600;BME280;51832;48.152;11.530;2023-08-31T04:33:09;95110.56;;;16.14;100.00
56600;BME280;51832;48.152;11.530;2023-08-31T04:38:10;95129.94;;;15.94;100.00
56600;BME280;51832;48.152;11.530;2023-08-31T04:43:11;95136.28;;;15.88;100.00
56600;BME280;51832;48.152;11.530;2023-08-31T04:48:11;95141.06;;;15.81;100.00
56600;BME280;51832;48.152;11.530;2023-08-31T04:53:12;95143.19;;;15.99;100.00
56600;BME280;51832;48.152;11.530;2023-08-31T04:58:12;95144.28;;;16.19;100.00
56600;BME280;51832;48.152;11.530;2023-08-31T05:03:13;95150.94;;;16.11;100.00
56600;BME280;51832;48.152;11.530;2023-08-31T05:08:14;95166.56;;;16.08;100.00
56600;BME280;51832;48.152;11.530;2023-08-31T05:13:14;95159.31;;;15.68;100.00
56600;BME280;51832;48.152;11.530;2023-08-31T05:18:15;95166.59;;;15.40;100.00
56600;BME280;51832;48.152;11.530;2023-08-31T05:23:15;95164.78;;;15.51;100.00
56600;BME280;51832;48.152;11.530;2023-08-31T05:28:15;95169.72;;;15.32;100.00
56600;BME280;51832;48.152;11.530;2023-08-31T05:33:17;95174.41;;;15.62;100.00
56600;BME280;51832;48.152;11.530;2023-08-31T05:38:17;95168.88;;;15.69;100.00
56600;BME280;51832;48.152;11.530;2023-08-31T05:43:17;95180.34;;;15.37;100.00
56600;BME280;51832;48.152;11.530;2023-08-31T05:48:18;95183.59;;;15.49;100.00
56600;BME280;51832;48.152;11.530;2023-08-31T05:53:18;95194.47;;;15.48;100.00
56600;BME280;51832;48.152;11.530;2023-08-31T05:58:19;95188.78;;;15.76;100.00
56600;BME280;51832;48.152;11.530;2023-08-31T06:03:19;95195.94;;;15.76;100.00
56600;BME280;51832;48.152;11.530;2023-08-31T06:08:19;95206.84;;;15.84;100.00
56600;BME280;51832;48.152;11.530;2023-08-31T06:13:20;95210.75;;;15.72;100.00
56600;BME280;51832;48.152;11.530;2023-08-31T06:18:20;95216.09;;;15.77;100.00
56600;BME280;51832;48.152;11.530;2023-08-31T06:23:21;95210.13;;;16.22;100.00
56600;BME280;51832;48.152;11.530;2023-08-31T06:28:21;95208.81;;;16.29;100.00
56600;BME280;51832;48.152;11.530;2023-08-31T06:33:22;95214.66;;;16.42;100.00
56600;BME280;51832;48.152;11.530;2023-08-31T06:38:22;95220.28;;;16.50;100.00
56600;BME280;51832;48.152;11.530;2023-08-31T06:43:23;95221.84;;;16.31;100.00
56600;BME280;51832;48.152;11.530;2023-08-31T06:48:23;95224.22;;;16.32;100.00
56600;BME280;51832;48.152;11.530;2023-08-31T06:53:25;95223.97;;;16.44;100.00
56600;BME280;51832;48.152;11.530;2023-08-31T06:58:25;95233.28;;;16.57;100.00
56600;BME280;51832;48.152;11.530;2023-08-31T07:03:26;95241.31;;;16.72;100.00
56600;BME280;51832;48.152;11.530;2023-08-31T07:08:26;95246.63;;;16.72;100.00
56600;BME280;51832;48.152;11.530;2023-08-31T07:13:26;95255.66;;;16.96;100.00
56600;BME280;51832;48.152;11.530;2023-08-31T07:18:27;95245.03;;;16.91;100.00
56600;BME280;51832;48.152;11.530;2023-08-31T07:23:27;95258.31;;;17.01;100.00
56600;BME280;51832;48.152;11.530;2023-08-31T07:28:28;95259.38;;;16.85;100.00
56600;BME280;51832;48.152;11.530;2023-08-31T07:33:28;95264.44;;;16.77;100.00
56600;BME280;51832;48.152;11.530;2023-08-31T07:38:32;95282.22;;;16.96;100.00
56600;BME280;51832;48.152;11.530;2023-08-31T07:43:33;95283.56;;;16.99;97.50
56600;BME280;51832;48.152;11.530;2023-08-31T07:48:33;95292.81;;;16.61;99.20
56600;BME280;51832;48.152;11.530;2023-08-31T07:53:34;95285.72;;;17.17;99.22
56600;BME280;51832;48.152;11.530;2023-08-31T07:58:34;95270.81;;;17.31;96.69
56600;BME280;51832;48.152;11.530;2023-08-31T08:03:35;95285.13;;;17.61;94.47
56600;BME280;51832;48.152;11.530;2023-08-31T08:08:35;95274.47;;;17.61;93.22
56600;BME280;51832;48.152;11.530;2023-08-31T08:13:36;95292.00;;;17.77;92.00
56600;BME280;51832;48.152;11.530;2023-08-31T08:18:36;95293.38;;;17.69;91.73
56600;BME280;51832;48.152;11.530;2023-08-31T08:23:36;95300.00;;;17.77;91.08
56600;BME280;51832;48.152;11.530;2023-08-31T08:28:37;95312.81;;;17.65;92.32
56600;BME280;51832;48.152;11.530;2023-08-31T08:33:37;95322.38;;;17.46;91.23
56600;BME280;51832;48.152;11.530;2023-08-31T08:38:37;95326.63;;;17.26;89.35
56600;BME280;51832;48.152;11.530;2023-08-31T08:43:40;95323.47;;;17.29;87.80
56600;BME280;51832;48.152;11.530;2023-08-31T08:48:45;95329.56;;;17.75;86.50
56600;BME280;51832;48.152;11.530;2023-08-31T08:53:47;95321.75;;;18.04;84.48
56600;BME280;51832;48.152;11.530;2023-08-31T08:58:50;95326.03;;;17.95;83.18
56600;BME280;51832;48.152;11.530;2023-08-31T09:03:51;95324.19;;;17.96;83.06
56600;BME280;51832;48.152;11.530;2023-08-31T09:08:54;95340.16;;;17.96;82.99
56600;BME280;51832;48.152;11.530;2023-08-31T09:13:58;95350.84;;;17.65;85.41
56600;BME280;51832;48.152;11.530;2023-08-31T09:18:58;95349.50;;;17.42;86.25
56600;BME280;51832;48.152;11.530;2023-08-31T09:23:59;95351.63;;;17.61;86.37
56600;BME280;51832;48.152;11.530;2023-08-31T09:28:59;95351.06;;;17.94;85.32
56600;BME280;51832;48.152;11.530;2023-08-31T09:34:01;95335.84;;;18.15;85.18
56600;BME280;51832;48.152;11.530;2023-08-31T09:39:01;95332.88;;;18.22;83.56
56600;BME280;51832;48.152;11.530;2023-08-31T09:44:20;95340.75;;;18.52;83.13
56600;BME280;51832;48.152;11.530;2023-08-31T09:49:21;95343.38;;;17.88;83.70
56600;BME280;51832;48.152;11.530;2023-08-31T09:54:22;95345.47;;;17.91;84.64
56600;BME280;51832;48.152;11.530;2023-08-31T09:59:24;95337.81;;;17.74;85.79
56600;BME280;51832;48.152;11.530;2023-08-31T10:04:24;95346.00;;;17.93;85.38
56600;BME280;51832;48.152;11.530;2023-08-31T10:09:25;95339.31;;;18.05;84.03
56600;BME280;51832;48.152;11.530;2023-08-31T10:14:26;95338.63;;;18.49;82.89
56600;BME280;51832;48.152;11.530;2023-08-31T10:19:28;95330.16;;;18.42;81.33
56600;BME280;51832;48.152;11.530;2023-08-31T10:24:57;95338.19;;;18.27;81.44
56600;BME280;51832;48.152;11.530;2023-08-31T10:35:21;95334.78;;;18.80;80.05
56600;BME280;51832;48.152;11.530;2023-08-31T10:40:22;95337.06;;;18.43;81.44
56600;BME280;51832;48.152;11.530;2023-08-31T10:45:22;95335.38;;;18.67;81.88
56600;BME280;51832;48.152;11.530;2023-08-31T10:50:24;95334.22;;;18.84;81.20
56600;BME280;51832;48.152;11.530;2023-08-31T10:55:25;95339.31;;;18.16;84.03
56600;BME280;51832;48.152;11.530;2023-08-31T11:00:51;95349.63;;;18.32;82.96
56600;BME280;51832;48.152;11.530;2023-08-31T11:05:57;95348.75;;;18.52;82.17
56600;BME280;51832;48.152;11.530;2023-08-31T11:10:57;95356.69;;;18.67;82.08
56600;BME280;51832;48.152;11.530;2023-08-31T11:15:57;95347.84;;;18.77;80.27
56600;BME280;51832;48.152;11.530;2023-08-31T11:20:58;95337.91;;;18.88;80.02
56600;BME280;51832;48.152;11.530;2023-08-31T11:25:59;95337.00;;;19.02;79.67
56600;BME280;51832;48.152;11.530;2023-08-31T11:31:00;95361.72;;;18.74;79.60
56600;BME280;51832;48.152;11.530;2023-08-31T11:36:00;95343.72;;;19.34;74.73
56600;BME280;51832;48.152;11.530;2023-08-31T11:41:00;95353.72;;;19.18;75.55
56600;BME280;51832;48.152;11.530;2023-08-31T11:46:02;95351.91;;;19.08;74.98
56600;BME280;51832;48.152;11.530;2023-08-31T11:51:03;95350.91;;;19.38;75.89
56600;BME280;51832;48.152;11.530;2023-08-31T11:56:04;95368.09;;;18.78;76.42
56600;BME280;51832;48.152;11.530;2023-08-31T12:01:04;95365.81;;;19.05;77.34
56600;BME280;51832;48.152;11.530;2023-08-31T12:06:05;95366.13;;;18.99;79.03
56600;BME280;51832;48.152;11.530;2023-08-31T12:11:06;95367.81;;;19.24;73.41
56600;BME280;51832;48.152;11.530;2023-08-31T12:16:13;95379.31;;;19.58;71.40
56600;BME280;51832;48.152;11.530;2023-08-31T12:21:14;95361.00;;;19.41;70.26
56600;BME280;51832;48.152;11.530;2023-08-31T12:26:14;95368.19;;;19.51;70.10
56600;BME280;51832;48.152;11.530;2023-08-31T12:31:14;95368.44;;;19.44;70.37
56600;BME280;51832;48.152;11.530;2023-08-31T12:36:15;95365.16;;;19.92;69.47
56600;BME280;51832;48.152;11.530;2023-08-31T12:41:16;95371.84;;;19.89;69.57
56600;BME280;51832;48.152;11.530;2023-08-31T12:46:17;95372.59;;;20.18;68.58
56600;BME280;51832;48.152;11.530;2023-08-31T12:51:18;95370.34;;;20.31;68.39
56600;BME280;51832;48.152;11.530;2023-08-31T12:56:18;95368.13;;;20.38;68.56
56600;BME280;51832;48.152;11.530;2023-08-31T13:01:22;95369.97;;;20.13;68.52
56600;BME280;51832;48.152;11.530;2023-08-31T13:06:23;95376.91;;;19.57;70.40
56600;BME280;51832;48.152;11.530;2023-08-31T13:11:25;95372.78;;;19.74;70.70
56600;BME280;51832;48.152;11.530;2023-08-31T13:16:25;95378.06;;;19.79;68.86
56600;BME280;51832;48.152;11.530;2023-08-31T13:21:26;95370.34;;;20.54;65.20
56600;BME280;51832;48.152;11.530;2023-08-31T13:26:26;95362.28;;;20.78;63.11
56600;BME280;51832;48.152;11.530;2023-08-31T13:31:27;95374.03;;;21.01;61.11
56600;BME280;51832;48.152;11.530;2023-08-31T13:36:28;95363.25;;;20.87;62.73
56600;BME280;51832;48.152;11.530;2023-08-31T13:41:29;95373.47;;;20.62;62.46
56600;BME280;51832;48.152;11.530;2023-08-31T13:46:30;95379.44;;;20.77;60.77
56600;BME280;51832;48.152;11.530;2023-08-31T13:51:31;95382.69;;;20.93;61.37
56600;BME280;51832;48.152;11.530;2023-08-31T13:56:32;95360.34;;;20.84;59.00
56600;BME280;51832;48.152;11.530;2023-08-31T14:01:32;95352.75;;;21.47;58.23
56600;BME280;51832;48.152;11.530;2023-08-31T14:06:32;95367.31;;;21.41;57.23
56600;BME280;51832;48.152;11.530;2023-08-31T14:11:33;95363.03;;;20.84;57.98
56600;BME280;51832;48.152;11.530;2023-08-31T14:16:33;95360.13;;;20.38;59.27
56600;BME280;51832;48.152;11.530;2023-08-31T14:21:34;95348.78;;;19.98;60.86
56600;BME280;51832;48.152;11.530;2023-08-31T14:26:34;95344.88;;;20.38;60.56
56600;BME280;51832;48.152;11.530;2023-08-31T14:31:35;95364.75;;;20.27;60.72
56600;BME280;51832;48.152;11.530;2023-08-31T14:36:35;95356.88;;;20.41;60.64
56600;BME280;51832;48.152;11.530;2023-08-31T14:41:35;95358.75;;;20.40;61.31
56600;BME280;51832;48.152;11.530;2023-08-31T14:46:36;95351.16;;;20.71;60.38
56600;BME280;51832;48.152;11.530;2023-08-31T14:51:36;95356.22;;;20.91;59.53
56600;BME280;51832;48.152;11.530;2023-08-31T14:56:36;95359.31;;;20.80;60.54
56600;BME280;51832;48.152;11.530;2023-08-31T15:01:37;95356.28;;;20.68;60.20
56600;BME280;51832;48.152;11.530;2023-08-31T15:06:37;95365.09;;;20.68;60.49
56600;BME280;51832;48.152;11.530;2023-08-31T15:11:38;95374.75;;;20.64;59.11
56600;BME280;51832;48.152;11.530;2023-08-31T15:16:39;95383.84;;;20.44;56.20
56600;BME280;51832;48.152;11.530;2023-08-31T15:21:40;95392.31;;;19.99;58.97
56600;BME280;51832;48.152;11.530;2023-08-31T15:26:41;95387.16;;;20.07;57.57
56600;BME280;51832;48.152;11.530;2023-08-31T15:31:41;95386.63;;;20.05;58.11
56600;BME280;51832;48.152;11.530;2023-08-31T15:36:42;95387.09;;;20.12;58.51
56600;BME280;51832;48.152;11.530;2023-08-31T15:41:42;95377.25;;;20.61;58.47
56600;BME280;51832;48.152;11.530;2023-08-31T15:46:43;95379.97;;;20.55;58.96
56600;BME280;51832;48.152;11.530;2023-08-31T15:51:44;95375.22;;;20.71;59.08
56600;BME280;51832;48.152;11.530;2023-08-31T15:56:44;95384.66;;;20.87;59.42
56600;BME280;51832;48.152;11.530;2023-08-31T16:01:44;95375.75;;;20.92;59.54
56600;BME280;51832;48.152;11.530;2023-08-31T16:06:45;95374.44;;;21.46;58.54
56600;BME280;51832;48.152;11.530;2023-08-31T16:11:46;95387.63;;;21.42;58.31
56600;BME280;51832;48.152;11.530;2023-08-31T16:16:46;95369.78;;;21.19;59.41
56600;BME280;51832;48.152;11.530;2023-08-31T16:21:47;95380.97;;;21.40;59.38
56600;BME280;51832;48.152;11.530;2023-08-31T16:26:47;95382.13;;;20.96;60.89
56600;BME280;51832;48.152;11.530;2023-08-31T16:31:47;95384.16;;;21.04;60.99
56600;BME280;51832;48.152;11.530;2023-08-31T16:36:48;95388.69;;;20.85;62.03
56600;BME280;51832;48.152;11.530;2023-08-31T16:41:49;95388.75;;;20.80;62.03
56600;BME280;51832;48.152;11.530;2023-08-31T16:46:50;95384.91;;;20.67;62.45
56600;BME280;51832;48.152;11.530;2023-08-31T16:51:50;95377.09;;;20.71;61.97
56600;BME280;51832;48.152;11.530;2023-08-31T16:56:51;95379.41;;;20.58;62.82
56600;BME280;51832;48.152;11.530;2023-08-31T17:01:55;95386.00;;;20.42;63.37
56600;BME280;51832;48.152;11.530;2023-08-31T17:06:55;95371.47;;;20.24;64.12
56600;BME280;51832;48.152;11.530;2023-08-31T17:11:56;95377.09;;;20.23;64.10
56600;BME280;51832;48.152;11.530;2023-08-31T17:16:59;95361.06;;;20.23;64.51
56600;BME280;51832;48.152;11.530;2023-08-31T17:22:01;95357.75;;;20.36;64.48
56600;BME280;51832;48.152;11.530;2023-08-31T17:27:03;95368.19;;;20.33;65.39
56600;BME280;51832;48.152;11.530;2023-08-31T17:32:03;95372.63;;;20.42;65.50
56600;BME280;51832;48.152;11.530;2023-08-31T17:37:04;95362.09;;;20.27;66.24
56600;BME280;51832;48.152;11.530;2023-08-31T17:42:05;95360.16;;;20.09;67.56
56600;BME280;51832;48.152;11.530;2023-08-31T17:47:05;95360.34;;;20.17;68.21
56600;BME280;51832;48.152;11.530;2023-08-31T17:52:05;95366.28;;;20.09;69.20
56600;BME280;51832;48.152;11.530;2023-08-31T17:57:06;95370.81;;;19.85;69.98
56600;BME280;51832;48.152;11.530;2023-08-31T18:02:07;95379.19;;;19.73;72.00
56600;BME280;51832;48.152;11.530;2023-08-31T18:07:07;95379.72;;;19.75;72.25
56600;BME280;51832;48.152;11.530;2023-08-31T18:12:08;95387.75;;;19.70;72.51
56600;BME280;51832;48.152;11.530;2023-08-31T18:17:09;95389.72;;;19.60;73.36
56600;BME280;51832;48.152;11.530;2023-08-31T18:22:09;95395.88;;;19.55;73.48
56600;BME280;51832;48.152;11.530;2023-08-31T18:27:10;95410.34;;;19.44;73.82
56600;BME280;51832;48.152;11.530;2023-08-31T18:32:10;95406.50;;;19.65;73.60
56600;BME280;51832;48.152;11.530;2023-08-31T18:37:11;95414.16;;;19.72;73.37
56600;BME280;51832;48.152;11.530;2023-08-31T18:42:12;95421.09;;;19.34;75.91
56600;BME280;51832;48.152;11.530;2023-08-31T18:47:12;95429.34;;;19.37;76.30
56600;BME280;51832;48.152;11.530;2023-08-31T18:52:12;95426.25;;;19.25;77.46
56600;BME280;51832;48.152;11.530;2023-08-31T18:57:13;95436.47;;;19.08;77.67
56600;BME280;51832;48.152;11.530;2023-08-31T19:02:13;95440.50;;;19.00;78.47
56600;BME280;51832;48.152;11.530;2023-08-31T19:07:14;95436.47;;;19.03;78.76
56600;BME280;51832;48.152;11.530;2023-08-31T19:12:14;95441.66;;;18.84;78.85
56600;BME280;51832;48.152;11.530;2023-08-31T19:17:15;95446.81;;;19.14;77.65
56600;BME280;51832;48.152;11.530;2023-08-31T19:22:15;95438.78;;;19.20;76.90
56600;BME280;51832;48.152;11.530;2023-08-31T19:27:17;95457.97;;;19.27;75.98
56600;BME280;51832;48.152;11.530;2023-08-31T19:32:19;95455.38;;;19.11;76.19
56600;BME280;51832;48.152;11.530;2023-08-31T19:37:19;95460.47;;;19.03;76.37
56600;BME280;51832;48.152;11.530;2023-08-31T19:42:19;95457.31;;;18.96;76.92
56600;BME280;51832;48.152;11.530;2023-08-31T19:47:20;95455.78;;;18.85;77.73
56600;BME280;51832;48.152;11.530;2023-08-31T19:52:20;95462.41;;;18.87;77.21
56600;BME280;51832;48.152;11.530;2023-08-31T19:57:21;95463.41;;;19.01;76.13
56600;BME280;51832;48.152;11.530;2023-08-31T20:02:21;95458.19;;;18.81;76.76
56600;BME280;51832;48.152;11.530;2023-08-31T20:07:22;95457.16;;;18.72;78.00
56600;BME280;51832;48.152;11.530;2023-08-31T20:12:22;95464.91;;;18.68;77.69
56600;BME280;51832;48.152;11.530;2023-08-31T20:17:23;95473.16;;;18.72;77.97
56600;BME280;51832;48.152;11.530;2023-08-31T20:22:23;95458.25;;;18.56;78.17
56600;BME280;51832;48.152;11.530;2023-08-31T20:27:24;95467.56;;;18.63;78.37
56600;BME280;51832;48.152;11.530;2023-08-31T20:32:24;95463.03;;;18.64;78.29
56600;BME280;51832;48.152;11.530;2023-08-31T20:37:24;95465.72;;;18.59;78.34
56600;BME280;51832;48.152;11.530;2023-08-31T20:42:25;95475.84;;;18.57;78.85
56600;BME280;51832;48.152;11.530;2023-08-31T20:47:25;95473.44;;;18.55;79.03
56600;BME280;51832;48.152;11.530;2023-08-31T20:52:26;95473.22;;;18.36;80.90
56600;BME280;51832;48.152;11.530;2023-08-31T20:57:30;95482.00;;;18.32;81.11
56600;BME280;51832;48.152;11.530;2023-08-31T21:02:31;95482.78;;;18.53;80.07
56600;BME280;51832;48.152;11.530;2023-08-31T21:07:31;95488.94;;;18.38;80.79
56600;BME280;51832;48.152;11.530;2023-08-31T21:12:31;95478.53;;;18.36;80.53
56600;BME280;51832;48.152;11.530;2023-08-31T21:17:32;95490.53;;;18.19;81.25
56600;BME280;51832;48.152;11.530;2023-08-31T21:22:32;95490.28;;;18.20;81.51
56600;BME280;51832;48.152;11.530;2023-08-31T21:27:33;95490.56;;;18.08;83.08
56600;BME280;51832;48.152;11.530;2023-08-31T21:32:33;95485.22;;;18.08;82.55
56600;BME280;51832;48.152;11.530;2023-08-31T21:37:34;95493.25;;;18.03;82.88
56600;BME280;51832;48.152;11.530;2023-08-31T21:42:34;95496.41;;;18.21;82.10
56600;BME280;51832;48.152;11.530;2023-08-31T21:47:35;95488.44;;;18.10;82.24
56600;BME280;51832;48.152;11.530;2023-08-31T21:52:35;95490.56;;;18.08;82.31
56600;BME280;51832;48.152;11.530;2023-08-31T21:57:37;95497.22;;;17.81;83.46
56600;BME280;51832;48.152;11.530;2023-08-31T22:02:38;95494.81;;;18.09;82.16
56600;BME280;51832;48.152;11.530;2023-08-31T22:07:40;95495.09;;;18.13;82.18
56600;BME280;51832;48.152;11.530;2023-08-31T22:12:41;95502.81;;;18.15;82.44
56600;BME280;51832;48.152;11.530;2023-08-31T22:17:42;95507.59;;;18.13;82.84
56600;BME280;51832;48.152;11.530;2023-08-31T22:22:46;95520.09;;;17.92;83.82
56600;BME280;51832;48.152;11.530;2023-08-31T22:27:47;95504.41;;;18.10;83.55
56600;BME280;51832;48.152;11.530;2023-08-31T22:32:48;95506.81;;;18.02;84.59
56600;BME280;51832;48.152;11.530;2023-08-31T22:37:48;95502.78;;;17.79;86.39
56600;BME280;51832;48.152;11.530;2023-08-31T22:42:49;95511.34;;;17.96;85.96
56600;BME280;51832;48.152;11.530;2023-08-31T22:47:49;95514.25;;;18.10;85.92
56600;BME280;51832;48.152;11.530;2023-08-31T22:52:50;95516.13;;;17.94;87.20
56600;BME280;51832;48.152;11.530;2023-08-31T22:57:50;95521.97;;;17.81;88.44
56600;BME280;51832;48.152;11.530;2023-08-31T23:02:50;95523.84;;;17.86;89.34
56600;BME280;51832;48.152;11.530;2023-08-31T23:07:51;95533.44;;;17.97;89.74
56600;BME280;51832;48.152;11.530;2023-08-31T23:12:51;95544.63;;;17.89;90.61
56600;BME280;51832;48.152;11.530;2023-08-31T23:17:52;95545.06;;;17.55;91.83
56600;BME280;51832;48.152;11.530;2023-08-31T23:22:52;95538.16;;;17.64;92.64
56600;BME280;51832;48.152;11.530;2023-08-31T23:27:53;95544.59;;;17.73;92.38
56600;BME280;51832;48.152;11.530;2023-08-31T23:32:53;95526.22;;;17.82;92.37
56600;BME280;51832;48.152;11.530;2023-08-31T23:37:53;95532.09;;;17.84;92.95
56600;BME280;51832;48.152;11.530;2023-08-31T23:42:54;95527.50;;;17.59;93.91
56600;BME280;51832;48.152;11.530;2023-08-31T23:47:54;95530.19;;;17.64;94.06
56600;BME280;51832;48.152;11.530;2023-08-31T23:52:56;95535.72;;;17.42;95.92
56600;BME280;51832;48.152;11.530;2023-08-31T23:57:56;95518.91;;;17.22;96.95
